sensor_id;sensor_type;location;lat;lon;timestamp;pressure;altitude;pressure_sealevel;temperature;humidity
83551;BME280;74617;47.082;15.524;2024-03-25T00:00:41;95729.44;;;19.16;42.43
83551;BME280;74617;47.082;15.524;2024-03-25T00:03:06;95736.81;;;19.16;42.40
83551;BME280;74617;47.082;15.524;2024-03-25T00:05:31;95725.94;;;19.16;42.53
83551;BME280;74617;47.082;15.524;2024-03-25T00:07:57;95735.22;;;19.14;42.34
83551;BME280;74617;47.082;15.524;2024-03-25T00:10:23;95733.66;;;19.13;42.56
83551;BME280;74617;47.082;15.524;2024-03-25T00:12:49;95739.88;;;19.14;42.32
83551;BME280;74617;47.082;15.524;2024-03-25T00:15:18;95741.81;;;19.13;42.49
83551;BME280;74617;47.082;15.524;2024-03-25T00:17:45;95739.88;;;19.14;42.31
83551;BME280;74617;47.082;15.524;2024-03-25T00:20:12;95732.06;;;19.12;42.55
83551;BME280;74617;47.082;15.524;2024-03-25T00:22:38;95728.19;;;19.13;42.45
83551;BME280;74617;47.082;15.524;2024-03-25T00:25:04;95716.88;;;19.11;42.62
83551;BME280;74617;47.082;15.524;2024-03-25T00:27:29;95728.56;;;19.12;42.60
83551;BME280;74617;47.082;15.524;2024-03-25T00:29:55;95734.00;;;19.12;42.50
83551;BME280;74617;47.082;15.524;2024-03-25T00:32:20;95735.94;;;19.11;42.53
83551;BME280;74617;47.082;15.524;2024-03-25T00:34:46;95740.59;;;19.11;42.71
83551;BME280;74617;47.082;15.524;2024-03-25T00:37:12;95738.25;;;19.09;42.72
83551;BME280;74617;47.082;15.524;2024-03-25T00:39:38;95742.53;;;19.10;42.65
83551;BME280;74617;47.082;15.524;2024-03-25T00:42:03;95749.91;;;19.10;42.61
83551;BME280;74617;47.082;15.524;2024-03-25T00:44:29;95750.69;;;19.10;42.64
83551;BME280;74617;47.082;15.524;2024-03-25T00:46:55;95745.25;;;19.10;42.69
83551;BME280;74617;47.082;15.524;2024-03-25T00:49:20;95744.47;;;19.10;42.46
83551;BME280;74617;47.082;15.524;2024-03-25T00:51:46;95737.44;;;19.09;42.70
83551;BME280;74617;47.082;15.524;2024-03-25T00:54:12;95733.59;;;19.10;42.95
83551;BME280;74617;47.082;15.524;2024-03-25T00:56:37;95734.72;;;19.09;42.49
83551;BME280;74617;47.082;15.524;2024-03-25T00:59:03;95729.63;;;19.07;42.85
83551;BME280;74617;47.082;15.524;2024-03-25T01:01:29;95725.78;;;19.08;42.37
83551;BME280;74617;47.082;15.524;2024-03-25T01:03:55;95725.78;;;19.08;42.65
83551;BME280;74617;47.082;15.524;2024-03-25T01:06:21;95722.25;;;19.08;42.67
83551;BME280;74617;47.082;15.524;2024-03-25T01:08:46;95717.94;;;19.07;42.38
83551;BME280;74617;47.082;15.524;2024-03-25T01:11:11;95715.22;;;19.07;42.76
83551;BME280;74617;47.082;15.524;2024-03-25T01:13:37;95718.72;;;19.07;42.76
83551;BME280;74617;47.082;15.524;2024-03-25T01:16:02;95730.75;;;19.06;42.61
83551;BME280;74617;47.082;15.524;2024-03-25T01:18:28;95725.69;;;19.05;42.92
83551;BME280;74617;47.082;15.524;2024-03-25T01:20:53;95727.25;;;19.06;42.78
83551;BME280;74617;47.082;15.524;2024-03-25T01:23:20;95721.81;;;19.06;42.80
83551;BME280;74617;47.082;15.524;2024-03-25T01:25:45;95716.38;;;19.06;42.82
83551;BME280;74617;47.082;15.524;2024-03-25T01:28:10;95709.34;;;19.05;42.89
83551;BME280;74617;47.082;15.524;2024-03-25T01:30:36;95705.84;;;19.04;42.75
83551;BME280;74617;47.082;15.524;2024-03-25T01:33:04;95712.06;;;19.05;42.81
83551;BME280;74617;47.082;15.524;2024-03-25T01:35:30;95707.78;;;19.04;42.75
83551;BME280;74617;47.082;15.524;2024-03-25T01:37:56;95714.00;;;19.04;42.85
83551;BME280;74617;47.082;15.524;2024-03-25T01:40:21;95707.78;;;19.04;43.16
83551;BME280;74617;47.082;15.524;2024-03-25T01:42:57;95707.78;;;19.04;43.04
83551;BME280;74617;47.082;15.524;2024-03-25T01:45:24;95692.59;;;19.03;43.01
83551;BME280;74617;47.082;15.524;2024-03-25T01:47:50;95705.41;;;19.02;43.05
83551;BME280;74617;47.082;15.524;2024-03-25T01:50:16;95714.38;;;19.03;42.94
83551;BME280;74617;47.082;15.524;2024-03-25T01:52:41;95710.84;;;19.02;43.24
83551;BME280;74617;47.082;15.524;2024-03-25T01:55:10;95706.56;;;19.01;43.15
83551;BME280;74617;47.082;15.524;2024-03-25T01:57:38;95692.94;;;19.01;43.15
83551;BME280;74617;47.082;15.524;2024-03-25T02:00:05;95710.06;;;19.02;43.02
83551;BME280;74617;47.082;15.524;2024-03-25T02:02:31;95711.19;;;19.01;43.18
83551;BME280;74617;47.082;15.524;2024-03-25T02:04:59;95707.66;;;19.00;43.13
83551;BME280;74617;47.082;15.524;2024-03-25T02:07:25;95704.16;;;19.00;43.33
83551;BME280;74617;47.082;15.524;2024-03-25T02:09:52;95704.94;;;19.00;43.26
83551;BME280;74617;47.082;15.524;2024-03-25T02:12:17;95709.59;;;19.00;43.54
83551;BME280;74617;47.082;15.524;2024-03-25T02:14:43;95706.09;;;18.99;43.44
83551;BME280;74617;47.082;15.524;2024-03-25T02:17:09;95699.50;;;19.00;43.38
83551;BME280;74617;47.082;15.524;2024-03-25T02:19:37;95706.88;;;19.00;43.34
83551;BME280;74617;47.082;15.524;2024-03-25T02:22:02;95705.31;;;18.99;42.79
83551;BME280;74617;47.082;15.524;2024-03-25T02:24:29;95697.94;;;18.99;42.99
83551;BME280;74617;47.082;15.524;2024-03-25T02:26:55;95699.09;;;18.98;43.13
83551;BME280;74617;47.082;15.524;2024-03-25T02:29:21;95711.91;;;18.98;43.31
83551;BME280;74617;47.082;15.524;2024-03-25T02:31:46;95701.81;;;18.98;43.34
83551;BME280;74617;47.082;15.524;2024-03-25T02:34:12;95703.75;;;18.98;43.14
83551;BME280;74617;47.082;15.524;2024-03-25T02:36:37;95703.75;;;18.98;43.18
83551;BME280;74617;47.082;15.524;2024-03-25T02:39:04;95705.66;;;18.97;43.21
83551;BME280;74617;47.082;15.524;2024-03-25T02:41:30;95712.25;;;18.96;43.12
83551;BME280;74617;47.082;15.524;2024-03-25T02:43:56;95706.81;;;18.96;43.12
83551;BME280;74617;47.082;15.524;2024-03-25T02:46:22;95711.13;;;18.97;43.34
83551;BME280;74617;47.082;15.524;2024-03-25T02:48:48;95706.03;;;18.96;43.29
83551;BME280;74617;47.082;15.524;2024-03-25T02:51:13;95699.81;;;18.95;43.28
83551;BME280;74617;47.082;15.524;2024-03-25T02:53:38;95712.63;;;18.95;43.11
83551;BME280;74617;47.082;15.524;2024-03-25T02:56:04;95716.91;;;18.96;43.55
83551;BME280;74617;47.082;15.524;2024-03-25T02:58:29;95716.91;;;18.96;43.01
83551;BME280;74617;47.082;15.524;2024-03-25T03:00:55;95723.50;;;18.95;43.11
83551;BME280;74617;47.082;15.524;2024-03-25T03:03:20;95720.00;;;18.94;43.37
83551;BME280;74617;47.082;15.524;2024-03-25T03:05:45;95727.34;;;18.94;43.20
83551;BME280;74617;47.082;15.524;2024-03-25T03:08:11;95730.06;;;18.94;43.39
83551;BME280;74617;47.082;15.524;2024-03-25T03:10:36;95726.56;;;18.93;43.23
83551;BME280;74617;47.082;15.524;2024-03-25T03:13:01;95726.56;;;18.93;43.66
83551;BME280;74617;47.082;15.524;2024-03-25T03:15:27;95723.06;;;18.93;43.47
83551;BME280;74617;47.082;15.524;2024-03-25T03:17:52;95714.09;;;18.92;43.29
83551;BME280;74617;47.082;15.524;2024-03-25T03:20:18;95731.59;;;18.91;43.30
83551;BME280;74617;47.082;15.524;2024-03-25T03:22:44;95734.31;;;18.91;43.40
83551;BME280;74617;47.082;15.524;2024-03-25T03:25:09;95732.38;;;18.92;43.59
83551;BME280;74617;47.082;15.524;2024-03-25T03:27:35;95737.03;;;18.91;43.56
83551;BME280;74617;47.082;15.524;2024-03-25T03:30:00;95747.13;;;18.91;43.22
83551;BME280;74617;47.082;15.524;2024-03-25T03:32:26;95728.44;;;18.89;43.38
83551;BME280;74617;47.082;15.524;2024-03-25T03:34:51;95720.28;;;18.89;43.54
83551;BME280;74617;47.082;15.524;2024-03-25T03:37:17;95724.91;;;18.89;43.60
83551;BME280;74617;47.082;15.524;2024-03-25T03:39:42;95729.56;;;18.88;43.67
83551;BME280;74617;47.082;15.524;2024-03-25T03:42:08;95731.50;;;18.88;43.53
83551;BME280;74617;47.082;15.524;2024-03-25T03:44:33;95732.31;;;18.88;43.51
83551;BME280;74617;47.082;15.524;2024-03-25T03:46:58;95735.03;;;18.88;43.43
83551;BME280;74617;47.082;15.524;2024-03-25T03:49:24;95732.31;;;18.88;43.62
83551;BME280;74617;47.082;15.524;2024-03-25T03:51:49;95725.25;;;18.87;43.41
83551;BME280;74617;47.082;15.524;2024-03-25T03:54:14;95733.41;;;18.87;43.68
83551;BME280;74617;47.082;15.524;2024-03-25T03:56:40;95728.78;;;18.88;43.70
83551;BME280;74617;47.082;15.524;2024-03-25T03:59:05;95736.13;;;18.87;43.59
83551;BME280;74617;47.082;15.524;2024-03-25T04:01:30;95733.41;;;18.87;43.46
83551;BME280;74617;47.082;15.524;2024-03-25T04:03:56;95727.19;;;18.86;43.60
83551;BME280;74617;47.082;15.524;2024-03-25T04:06:21;95732.63;;;18.86;43.89
83551;BME280;74617;47.082;15.524;2024-03-25T04:08:47;95725.59;;;18.85;43.84
83551;BME280;74617;47.082;15.524;2024-03-25T04:11:12;95729.13;;;18.86;43.61
83551;BME280;74617;47.082;15.524;2024-03-25T04:13:38;95733.78;;;18.85;43.55
83551;BME280;74617;47.082;15.524;2024-03-25T04:16:04;95730.25;;;18.85;43.51
83551;BME280;74617;47.082;15.524;2024-03-25T04:18:32;95730.25;;;18.85;43.80
83551;BME280;74617;47.082;15.524;2024-03-25T04:20:57;95746.59;;;18.85;43.74
83551;BME280;74617;47.082;15.524;2024-03-25T04:23:23;95750.09;;;18.85;43.66
83551;BME280;74617;47.082;15.524;2024-03-25T04:25:49;95752.03;;;18.85;43.77
83551;BME280;74617;47.082;15.524;2024-03-25T04:28:15;95758.63;;;18.84;43.86
83551;BME280;74617;47.082;15.524;2024-03-25T04:30:40;95757.84;;;18.83;43.51
83551;BME280;74617;47.082;15.524;2024-03-25T04:33:06;95751.59;;;18.83;44.13
83551;BME280;74617;47.082;15.524;2024-03-25T04:35:32;95763.28;;;18.83;43.79
83551;BME280;74617;47.082;15.524;2024-03-25T04:37:57;95768.72;;;18.83;43.86
83551;BME280;74617;47.082;15.524;2024-03-25T04:40:23;95768.72;;;18.83;44.04
83551;BME280;74617;47.082;15.524;2024-03-25T04:42:48;95767.22;;;18.86;45.03
83551;BME280;74617;47.082;15.524;2024-03-25T04:45:14;95770.41;;;18.88;45.08
83551;BME280;74617;47.082;15.524;2024-03-25T04:47:40;95779.34;;;18.89;44.38
83551;BME280;74617;47.082;15.524;2024-03-25T04:50:06;95775.84;;;18.88;44.27
83551;BME280;74617;47.082;15.524;2024-03-25T04:52:32;95774.69;;;18.89;44.23
83551;BME280;74617;47.082;15.524;2024-03-25T04:54:57;95782.88;;;18.89;44.54
83551;BME280;74617;47.082;15.524;2024-03-25T04:57:23;95781.28;;;18.88;44.24
83551;BME280;74617;47.082;15.524;2024-03-25T04:59:49;95779.34;;;18.89;44.29
83551;BME280;74617;47.082;15.524;2024-03-25T05:02:14;95776.63;;;18.89;44.39
83551;BME280;74617;47.082;15.524;2024-03-25T05:04:40;95778.56;;;18.88;44.30
83551;BME280;74617;47.082;15.524;2024-03-25T05:07:05;95780.16;;;18.89;44.94
83551;BME280;74617;47.082;15.524;2024-03-25T05:09:31;95777.44;;;18.89;44.46
83551;BME280;74617;47.082;15.524;2024-03-25T05:11:56;95785.22;;;18.91;44.61
83551;BME280;74617;47.082;15.524;2024-03-25T05:14:22;95781.38;;;18.92;44.94
83551;BME280;74617;47.082;15.524;2024-03-25T05:16:47;95787.59;;;18.92;44.85
83551;BME280;74617;47.082;15.524;2024-03-25T05:19:14;95791.09;;;18.93;44.86
83551;BME280;74617;47.082;15.524;2024-03-25T05:21:39;95776.34;;;18.78;41.46
83551;BME280;74617;47.082;15.524;2024-03-25T05:24:04;95783.75;;;18.34;37.32
83551;BME280;74617;47.082;15.524;2024-03-25T05:26:30;95783.97;;;17.85;36.46
83551;BME280;74617;47.082;15.524;2024-03-25T05:28:56;95793.50;;;17.54;36.58
83551;BME280;74617;47.082;15.524;2024-03-25T05:31:22;95792.00;;;17.69;37.35
83551;BME280;74617;47.082;15.524;2024-03-25T05:33:48;95782.47;;;17.87;38.62
83551;BME280;74617;47.082;15.524;2024-03-25T05:36:13;95792.16;;;18.00;39.92
83551;BME280;74617;47.082;15.524;2024-03-25T05:38:39;95787.72;;;18.08;40.20
83551;BME280;74617;47.082;15.524;2024-03-25T05:41:05;95799.56;;;18.16;40.72
83551;BME280;74617;47.082;15.524;2024-03-25T05:43:30;95801.63;;;18.19;40.78
83551;BME280;74617;47.082;15.524;2024-03-25T05:45:57;95800.56;;;18.23;40.97
83551;BME280;74617;47.082;15.524;2024-03-25T05:48:24;95802.59;;;18.26;41.10
83551;BME280;74617;47.082;15.524;2024-03-25T05:51:05;95806.97;;;18.31;41.62
83551;BME280;74617;47.082;15.524;2024-03-25T05:53:32;95818.41;;;18.37;43.04
83551;BME280;74617;47.082;15.524;2024-03-25T05:55:58;95818.03;;;18.38;43.36
83551;BME280;74617;47.082;15.524;2024-03-25T05:58:26;95820.09;;;18.41;43.98
83551;BME280;74617;47.082;15.524;2024-03-25T06:00:52;95825.97;;;18.43;43.58
83551;BME280;74617;47.082;15.524;2024-03-25T06:03:21;95837.28;;;18.45;43.18
83551;BME280;74617;47.082;15.524;2024-03-25T06:05:47;95844.31;;;18.46;43.33
83551;BME280;74617;47.082;15.524;2024-03-25T06:08:13;95847.13;;;18.50;45.75
83551;BME280;74617;47.082;15.524;2024-03-25T06:10:46;95844.06;;;18.51;44.51
83551;BME280;74617;47.082;15.524;2024-03-25T06:13:12;95845.63;;;18.52;44.32
83551;BME280;74617;47.082;15.524;2024-03-25T06:15:37;95856.97;;;18.54;45.46
83551;BME280;74617;47.082;15.524;2024-03-25T06:18:03;95851.19;;;18.56;44.74
83551;BME280;74617;47.082;15.524;2024-03-25T06:20:28;95861.28;;;18.55;45.20
83551;BME280;74617;47.082;15.524;2024-03-25T06:22:54;95855.81;;;18.55;44.88
83551;BME280;74617;47.082;15.524;2024-03-25T06:25:19;95850.38;;;18.55;45.27
83551;BME280;74617;47.082;15.524;2024-03-25T06:27:44;95850.38;;;18.55;44.62
83551;BME280;74617;47.082;15.524;2024-03-25T06:30:10;95854.25;;;18.54;44.49
83551;BME280;74617;47.082;15.524;2024-03-25T06:32:54;95863.63;;;18.57;45.24
83551;BME280;74617;47.082;15.524;2024-03-25T06:35:39;95861.28;;;18.55;45.38
83551;BME280;74617;47.082;15.524;2024-03-25T06:38:04;95864.00;;;18.55;44.86
83551;BME280;74617;47.082;15.524;2024-03-25T06:40:29;95859.00;;;18.57;45.50
83551;BME280;74617;47.082;15.524;2024-03-25T06:42:56;95857.41;;;18.56;45.34
83551;BME280;74617;47.082;15.524;2024-03-25T06:45:21;95859.34;;;18.56;45.43
83551;BME280;74617;47.082;15.524;2024-03-25T06:47:46;95855.47;;;18.57;45.25
83551;BME280;74617;47.082;15.524;2024-03-25T06:50:12;95855.91;;;18.59;44.99
83551;BME280;74617;47.082;15.524;2024-03-25T06:52:37;95854.69;;;18.56;44.76
83551;BME280;74617;47.082;15.524;2024-03-25T06:55:03;95849.69;;;18.58;45.08
83551;BME280;74617;47.082;15.524;2024-03-25T06:57:28;95851.25;;;18.59;45.37
83551;BME280;74617;47.082;15.524;2024-03-25T06:59:54;95849.69;;;18.58;45.00
83551;BME280;74617;47.082;15.524;2024-03-25T07:02:19;95845.03;;;18.59;45.79
83551;BME280;74617;47.082;15.524;2024-03-25T07:04:45;95839.59;;;18.59;44.72
83551;BME280;74617;47.082;15.524;2024-03-25T07:07:10;95833.34;;;18.58;44.78
83551;BME280;74617;47.082;15.524;2024-03-25T07:09:35;95849.34;;;18.60;44.57
83551;BME280;74617;47.082;15.524;2024-03-25T07:12:01;95852.06;;;18.60;44.76
83551;BME280;74617;47.082;15.524;2024-03-25T07:14:26;95853.66;;;18.61;44.61
83551;BME280;74617;47.082;15.524;2024-03-25T07:16:52;95850.94;;;18.61;44.66
83551;BME280;74617;47.082;15.524;2024-03-25T07:19:17;95854.44;;;18.62;44.91
83551;BME280;74617;47.082;15.524;2024-03-25T07:21:42;95849.78;;;18.62;44.63
83551;BME280;74617;47.082;15.524;2024-03-25T07:24:08;95851.72;;;18.62;44.76
83551;BME280;74617;47.082;15.524;2024-03-25T07:26:33;95859.88;;;18.62;45.07
83551;BME280;74617;47.082;15.524;2024-03-25T07:28:58;95874.28;;;18.62;44.67
83551;BME280;74617;47.082;15.524;2024-03-25T07:31:24;95873.50;;;18.62;45.32
83551;BME280;74617;47.082;15.524;2024-03-25T07:33:50;95881.66;;;18.62;45.39
83551;BME280;74617;47.082;15.524;2024-03-25T07:36:16;95881.66;;;18.62;45.25
83551;BME280;74617;47.082;15.524;2024-03-25T07:38:41;95888.66;;;18.63;44.82
83551;BME280;74617;47.082;15.524;2024-03-25T07:41:07;95889.81;;;18.62;44.36
83551;BME280;74617;47.082;15.524;2024-03-25T07:43:34;95889.81;;;18.62;44.50
83551;BME280;74617;47.082;15.524;2024-03-25T07:45:59;95892.53;;;18.62;44.72
83551;BME280;74617;47.082;15.524;2024-03-25T07:48:24;95881.66;;;18.62;44.58
83551;BME280;74617;47.082;15.524;2024-03-25T07:50:50;95890.59;;;18.62;44.51
83551;BME280;74617;47.082;15.524;2024-03-25T07:53:15;95882.44;;;18.62;44.91
83551;BME280;74617;47.082;15.524;2024-03-25T07:55:40;95881.66;;;18.62;44.59
83551;BME280;74617;47.082;15.524;2024-03-25T07:58:06;95881.66;;;18.62;44.81
83551;BME280;74617;47.082;15.524;2024-03-25T08:00:31;95887.09;;;18.62;44.82
83551;BME280;74617;47.082;15.524;2024-03-25T08:02:57;95888.66;;;18.63;44.83
83551;BME280;74617;47.082;15.524;2024-03-25T08:05:22;95887.88;;;18.62;44.86
83551;BME280;74617;47.082;15.524;2024-03-25T08:07:47;95887.88;;;18.62;44.19
83551;BME280;74617;47.082;15.524;2024-03-25T08:10:13;95890.59;;;18.62;45.03
83551;BME280;74617;47.082;15.524;2024-03-25T08:12:39;95900.34;;;18.63;44.53
83551;BME280;74617;47.082;15.524;2024-03-25T08:15:04;95888.66;;;18.63;44.67
83551;BME280;74617;47.082;15.524;2024-03-25T08:17:30;95893.31;;;18.62;44.71
83551;BME280;74617;47.082;15.524;2024-03-25T08:19:55;95892.19;;;18.63;44.27
83551;BME280;74617;47.082;15.524;2024-03-25T08:22:20;95892.53;;;18.62;44.31
83551;BME280;74617;47.082;15.524;2024-03-25T08:24:46;95890.59;;;18.62;44.40
83551;BME280;74617;47.082;15.524;2024-03-25T08:27:12;95897.97;;;18.62;44.53
83551;BME280;74617;47.082;15.524;2024-03-25T08:29:37;95890.25;;;18.64;44.31
83551;BME280;74617;47.082;15.524;2024-03-25T08:32:03;95896.84;;;18.63;44.43
83551;BME280;74617;47.082;15.524;2024-03-25T08:34:28;95888.66;;;18.63;44.29
83551;BME280;74617;47.082;15.524;2024-03-25T08:36:54;95886.75;;;18.63;44.45
83551;BME280;74617;47.082;15.524;2024-03-25T08:39:20;95888.66;;;18.63;44.35
83551;BME280;74617;47.082;15.524;2024-03-25T08:41:46;95894.09;;;18.63;44.22
83551;BME280;74617;47.082;15.524;2024-03-25T08:44:11;95887.09;;;18.62;44.46
83551;BME280;74617;47.082;15.524;2024-03-25T08:46:38;95885.94;;;18.63;44.40
83551;BME280;74617;47.082;15.524;2024-03-25T08:49:03;95887.88;;;18.62;44.58
83551;BME280;74617;47.082;15.524;2024-03-25T08:51:29;95876.22;;;18.62;44.15
83551;BME280;74617;47.082;15.524;2024-03-25T08:53:54;95873.50;;;18.62;44.31
83551;BME280;74617;47.082;15.524;2024-03-25T08:56:19;95876.22;;;18.62;44.00
83551;BME280;74617;47.082;15.524;2024-03-25T08:58:45;95880.84;;;18.61;44.48
83551;BME280;74617;47.082;15.524;2024-03-25T09:01:10;95875.06;;;18.63;44.14
83551;BME280;74617;47.082;15.524;2024-03-25T09:03:39;95868.03;;;18.62;44.24
83551;BME280;74617;47.082;15.524;2024-03-25T09:06:06;95872.34;;;18.63;44.49
83551;BME280;74617;47.082;15.524;2024-03-25T09:08:32;95878.13;;;18.61;44.60
83551;BME280;74617;47.082;15.524;2024-03-25T09:11:18;95888.66;;;18.63;44.62
83551;BME280;74617;47.082;15.524;2024-03-25T09:13:43;95885.16;;;18.62;44.43
83551;BME280;74617;47.082;15.524;2024-03-25T09:16:08;95877.78;;;18.63;44.44
83551;BME280;74617;47.082;15.524;2024-03-25T09:18:34;95876.22;;;18.62;44.11
83551;BME280;74617;47.082;15.524;2024-03-25T09:20:59;95879.72;;;18.62;44.17
83551;BME280;74617;47.082;15.524;2024-03-25T09:23:24;95877.78;;;18.63;44.46
83551;BME280;74617;47.082;15.524;2024-03-25T09:25:53;95874.28;;;18.62;44.32
83551;BME280;74617;47.082;15.524;2024-03-25T09:28:19;95870.75;;;18.62;44.23
83551;BME280;74617;47.082;15.524;2024-03-25T09:30:44;95876.22;;;18.62;44.07
83551;BME280;74617;47.082;15.524;2024-03-25T09:33:10;95868.03;;;18.62;44.43
83551;BME280;74617;47.082;15.524;2024-03-25T09:35:35;95871.56;;;18.62;44.17
83551;BME280;74617;47.082;15.524;2024-03-25T09:38:02;95865.31;;;18.62;44.24
83551;BME280;74617;47.082;15.524;2024-03-25T09:40:28;95875.41;;;18.61;44.52
83551;BME280;74617;47.082;15.524;2024-03-25T09:42:58;95877.00;;;18.62;44.75
83551;BME280;74617;47.082;15.524;2024-03-25T09:45:28;95885.50;;;18.61;44.67
83551;BME280;74617;47.082;15.524;2024-03-25T09:47:55;95871.91;;;18.61;44.55
83551;BME280;74617;47.082;15.524;2024-03-25T09:50:21;95874.63;;;18.61;44.22
83551;BME280;74617;47.082;15.524;2024-03-25T09:52:50;95872.69;;;18.61;44.06
83551;BME280;74617;47.082;15.524;2024-03-25T09:55:15;95861.81;;;18.61;44.06
83551;BME280;74617;47.082;15.524;2024-03-25T09:57:43;95859.88;;;18.62;44.08
83551;BME280;74617;47.082;15.524;2024-03-25T10:00:10;95864.53;;;18.61;43.86
83551;BME280;74617;47.082;15.524;2024-03-25T10:02:40;95862.59;;;18.62;44.08
83551;BME280;74617;47.082;15.524;2024-03-25T10:05:06;95868.03;;;18.62;44.44
83551;BME280;74617;47.082;15.524;2024-03-25T10:07:33;95859.88;;;18.62;44.15
83551;BME280;74617;47.082;15.524;2024-03-25T10:09:58;95859.88;;;18.62;44.48
83551;BME280;74617;47.082;15.524;2024-03-25T10:12:24;95854.44;;;18.62;43.98
83551;BME280;74617;47.082;15.524;2024-03-25T10:14:50;95859.88;;;18.62;43.98
83551;BME280;74617;47.082;15.524;2024-03-25T10:17:15;95862.25;;;18.63;43.97
83551;BME280;74617;47.082;15.524;2024-03-25T10:19:41;95861.47;;;18.63;43.95
83551;BME280;74617;47.082;15.524;2024-03-25T10:22:08;95866.91;;;18.63;44.07
83551;BME280;74617;47.082;15.524;2024-03-25T10:24:41;95853.28;;;18.63;43.91
83551;BME280;74617;47.082;15.524;2024-03-25T10:27:10;95858.75;;;18.63;44.14
83551;BME280;74617;47.082;15.524;2024-03-25T10:29:37;95856.81;;;18.63;43.93
83551;BME280;74617;47.082;15.524;2024-03-25T10:32:02;95850.56;;;18.63;44.19
83551;BME280;74617;47.082;15.524;2024-03-25T10:34:29;95853.28;;;18.63;44.04
83551;BME280;74617;47.082;15.524;2024-03-25T10:36:58;95841.28;;;18.64;44.08
83551;BME280;74617;47.082;15.524;2024-03-25T10:39:27;95834.25;;;18.63;44.15
83551;BME280;74617;47.082;15.524;2024-03-25T10:41:56;95840.47;;;18.63;43.94
83551;BME280;74617;47.082;15.524;2024-03-25T10:44:23;95844.78;;;18.64;44.17
83551;BME280;74617;47.082;15.524;2024-03-25T10:46:57;95847.50;;;18.64;44.04
83551;BME280;74617;47.082;15.524;2024-03-25T10:49:37;95844.78;;;18.64;43.91
83551;BME280;74617;47.082;15.524;2024-03-25T10:52:05;95846.72;;;18.64;44.15
83551;BME280;74617;47.082;15.524;2024-03-25T10:54:31;95844.00;;;18.64;43.98
83551;BME280;74617;47.082;15.524;2024-03-25T10:56:58;95836.63;;;18.64;43.97
83551;BME280;74617;47.082;15.524;2024-03-25T10:59:26;95839.34;;;18.64;44.00
83551;BME280;74617;47.082;15.524;2024-03-25T11:01:52;95842.06;;;18.64;44.24
83551;BME280;74617;47.082;15.524;2024-03-25T11:04:19;95823.47;;;18.66;44.14
83551;BME280;74617;47.082;15.524;2024-03-25T11:06:45;95821.22;;;18.68;44.04
83551;BME280;74617;47.082;15.524;2024-03-25T11:09:21;95818.16;;;18.70;44.11
83551;BME280;74617;47.082;15.524;2024-03-25T11:11:51;95822.44;;;18.71;44.47
83551;BME280;74617;47.082;15.524;2024-03-25T11:14:16;95815.84;;;18.72;44.24
83551;BME280;74617;47.082;15.524;2024-03-25T11:16:42;95817.44;;;18.73;44.48
83551;BME280;74617;47.082;15.524;2024-03-25T11:19:10;95815.97;;;18.75;44.48
83551;BME280;74617;47.082;15.524;2024-03-25T11:21:36;95817.19;;;18.78;44.92
83551;BME280;74617;47.082;15.524;2024-03-25T11:24:08;95817.59;;;18.80;44.43
83551;BME280;74617;47.082;15.524;2024-03-25T11:26:34;95822.38;;;18.83;44.93
83551;BME280;74617;47.082;15.524;2024-03-25T11:29:02;95819.66;;;18.83;44.89
83551;BME280;74617;47.082;15.524;2024-03-25T11:31:27;95821.22;;;18.84;44.88
83551;BME280;74617;47.082;15.524;2024-03-25T11:33:56;95813.84;;;18.84;45.46
83551;BME280;74617;47.082;15.524;2024-03-25T11:36:22;95820.88;;;18.85;45.26
83551;BME280;74617;47.082;15.524;2024-03-25T11:39:06;95813.16;;;18.88;45.11
83551;BME280;74617;47.082;15.524;2024-03-25T11:41:40;95807.72;;;18.88;44.86
83551;BME280;74617;47.082;15.524;2024-03-25T11:44:08;95802.34;;;18.91;45.39
83551;BME280;74617;47.082;15.524;2024-03-25T11:46:37;95798.47;;;18.92;45.28
83551;BME280;74617;47.082;15.524;2024-03-25T11:49:05;95798.47;;;18.92;45.29
83551;BME280;74617;47.082;15.524;2024-03-25T11:51:31;95791.88;;;18.93;44.98
83551;BME280;74617;47.082;15.524;2024-03-25T11:53:57;95791.88;;;18.93;45.03
83551;BME280;74617;47.082;15.524;2024-03-25T11:56:25;95786.19;;;18.98;45.83
83551;BME280;74617;47.082;15.524;2024-03-25T11:58:50;95784.69;;;19.01;45.30
83551;BME280;74617;47.082;15.524;2024-03-25T12:01:15;95784.78;;;19.04;45.16
83551;BME280;74617;47.082;15.524;2024-03-25T12:03:41;95782.50;;;19.06;44.92
83551;BME280;74617;47.082;15.524;2024-03-25T12:06:06;95778.19;;;19.05;45.20
83551;BME280;74617;47.082;15.524;2024-03-25T12:08:32;95772.38;;;19.07;45.13
83551;BME280;74617;47.082;15.524;2024-03-25T12:11:01;95774.78;;;19.08;44.88
83551;BME280;74617;47.082;15.524;2024-03-25T12:13:45;95771.69;;;19.10;44.85
83551;BME280;74617;47.082;15.524;2024-03-25T12:16:12;95763.97;;;19.12;44.89
83551;BME280;74617;47.082;15.524;2024-03-25T12:18:40;95763.97;;;19.12;45.18
83551;BME280;74617;47.082;15.524;2024-03-25T12:21:06;95766.31;;;19.13;45.10
83551;BME280;74617;47.082;15.524;2024-03-25T12:23:32;95757.09;;;19.18;44.99
83551;BME280;74617;47.082;15.524;2024-03-25T12:26:01;95756.75;;;19.20;44.85
83551;BME280;74617;47.082;15.524;2024-03-25T12:28:28;95759.91;;;19.22;45.00
83551;BME280;74617;47.082;15.524;2024-03-25T12:30:55;95761.13;;;19.24;45.04
83551;BME280;74617;47.082;15.524;2024-03-25T12:33:23;95751.81;;;19.25;45.27
83551;BME280;74617;47.082;15.524;2024-03-25T12:35:50;95750.66;;;19.26;45.29
83551;BME280;74617;47.082;15.524;2024-03-25T12:40:50;95743.38;;;19.30;44.65
83551;BME280;74617;47.082;15.524;2024-03-25T12:43:16;95741.06;;;19.32;44.76
83551;BME280;74617;47.082;15.524;2024-03-25T12:45:42;95738.78;;;19.34;44.60
83551;BME280;74617;47.082;15.524;2024-03-25T12:48:08;95738.44;;;19.36;44.34